sensor_id;sensor_type;location;lat;lon;timestamp;pressure;altitude;pressure_sealevel;temperature;humidity
73297;BME280;61524;50.938;11.396;2023-05-20T00:00:21;99710.22;;;13.90;75.26
73297;BME280;61524;50.938;11.396;2023-05-20T00:02:47;99708.78;;;13.82;75.70
73297;BME280;61524;50.938;11.396;2023-05-20T00:05:12;99702.53;;;13.77;75.41
73297;BME280;61524;50.938;11.396;2023-05-20T00:07:37;99703.53;;;13.92;75.15
73297;BME280;61524;50.938;11.396;2023-05-20T00:10:03;99705.25;;;14.04;74.82
73297;BME280;61524;50.938;11.396;2023-05-20T00:12:29;99700.97;;;13.81;75.70
73297;BME280;61524;50.938;11.396;2023-05-20T00:14:54;99695.31;;;14.04;74.41
73297;BME280;61524;50.938;11.396;2023-05-20T00:17:20;99705.88;;;14.11;74.35
73297;BME280;61524;50.938;11.396;2023-05-20T00:19:45;99704.72;;;13.80;74.94
73297;BME280;61524;50.938;11.396;2023-05-20T00:22:10;99696.81;;;14.17;73.83
73297;BME280;61524;50.938;11.396;2023-05-20T00:24:36;99694.44;;;13.99;75.39
73297;BME280;61524;50.938;11.396;2023-05-20T00:27:01;99702.84;;;13.80;75.70
73297;BME280;61524;50.938;11.396;2023-05-20T00:29:27;99690.13;;;13.71;75.86
73297;BME280;61524;50.938;11.396;2023-05-20T00:31:52;99692.31;;;13.52;76.66
73297;BME280;61524;50.938;11.396;2023-05-20T00:34:19;99681.72;;;13.62;76.20
73297;BME280;61524;50.938;11.396;2023-05-20T00:36:44;99692.06;;;13.75;75.89
73297;BME280;61524;50.938;11.396;2023-05-20T00:39:10;99683.13;;;13.48;77.02
73297;BME280;61524;50.938;11.396;2023-05-20T00:41:36;99686.94;;;13.52;77.03
73297;BME280;61524;50.938;11.396;2023-05-20T00:44:02;99693.25;;;13.41;77.61
73297;BME280;61524;50.938;11.396;2023-05-20T00:46:28;99695.63;;;13.59;76.66
73297;BME280;61524;50.938;11.396;2023-05-20T00:48:54;99696.94;;;13.78;76.13
73297;BME280;61524;50.938;11.396;2023-05-20T00:51:19;99688.03;;;13.51;77.24
73297;BME280;61524;50.938;11.396;2023-05-20T00:53:45;99695.72;;;13.25;78.65
73297;BME280;61524;50.938;11.396;2023-05-20T00:56:12;99697.09;;;13.50;77.37
73297;BME280;61524;50.938;11.396;2023-05-20T00:58:37;99694.25;;;13.56;77.78
73297;BME280;61524;50.938;11.396;2023-05-20T01:01:04;99692.72;;;13.22;78.72
73297;BME280;61524;50.938;11.396;2023-05-20T01:03:30;99695.34;;;13.38;77.52
73297;BME280;61524;50.938;11.396;2023-05-20T01:05:55;99690.63;;;13.24;78.58
73297;BME280;61524;50.938;11.396;2023-05-20T01:08:22;99676.56;;;13.38;77.78
73297;BME280;61524;50.938;11.396;2023-05-20T01:10:51;99683.53;;;13.56;77.44
73297;BME280;61524;50.938;11.396;2023-05-20T01:13:19;99688.31;;;13.54;77.40
73297;BME280;61524;50.938;11.396;2023-05-20T01:15:47;99680.91;;;13.61;77.00
73297;BME280;61524;50.938;11.396;2023-05-20T01:18:14;99683.00;;;13.37;78.00
73297;BME280;61524;50.938;11.396;2023-05-20T01:20:49;99692.31;;;13.52;77.72
73297;BME280;61524;50.938;11.396;2023-05-20T01:23:15;99676.38;;;13.45;78.19
73297;BME280;61524;50.938;11.396;2023-05-20T01:25:41;99683.31;;;13.41;77.92
73297;BME280;61524;50.938;11.396;2023-05-20T01:28:07;99675.34;;;13.24;78.22
73297;BME280;61524;50.938;11.396;2023-05-20T01:30:37;99668.22;;;13.57;78.13
73297;BME280;61524;50.938;11.396;2023-05-20T01:33:10;99668.56;;;13.65;77.01
73297;BME280;61524;50.938;11.396;2023-05-20T01:35:38;99661.91;;;13.68;76.85
73297;BME280;61524;50.938;11.396;2023-05-20T01:38:06;99656.63;;;13.29;78.05
73297;BME280;61524;50.938;11.396;2023-05-20T01:40:32;99668.97;;;13.30;78.37
73297;BME280;61524;50.938;11.396;2023-05-20T01:42:59;99667.91;;;13.14;78.58
73297;BME280;61524;50.938;11.396;2023-05-20T01:45:25;99667.38;;;12.96;79.57
73297;BME280;61524;50.938;11.396;2023-05-20T01:47:51;99668.00;;;13.20;78.97
73297;BME280;61524;50.938;11.396;2023-05-20T01:50:16;99669.59;;;13.37;78.10
73297;BME280;61524;50.938;11.396;2023-05-20T01:52:42;99669.97;;;13.24;78.80
73297;BME280;61524;50.938;11.396;2023-05-20T01:55:08;99674.16;;;13.59;77.34
73297;BME280;61524;50.938;11.396;2023-05-20T01:57:33;99673.13;;;13.65;76.86
73297;BME280;61524;50.938;11.396;2023-05-20T01:59:59;99681.19;;;13.65;77.20
73297;BME280;61524;50.938;11.396;2023-05-20T02:02:24;99676.50;;;13.77;77.22
73297;BME280;61524;50.938;11.396;2023-05-20T02:04:52;99673.66;;;13.40;77.95
73297;BME280;61524;50.938;11.396;2023-05-20T02:07:18;99687.34;;;13.22;79.01
73297;BME280;61524;50.938;11.396;2023-05-20T02:09:43;99684.81;;;13.54;78.14
73297;BME280;61524;50.938;11.396;2023-05-20T02:12:09;99677.50;;;13.49;78.37
73297;BME280;61524;50.938;11.396;2023-05-20T02:14:41;99683.53;;;13.56;78.78
73297;BME280;61524;50.938;11.396;2023-05-20T02:17:06;99688.13;;;13.39;78.54
73297;BME280;61524;50.938;11.396;2023-05-20T02:19:32;99683.81;;;12.82;80.34
73297;BME280;61524;50.938;11.396;2023-05-20T02:21:57;99676.22;;;12.96;80.65
73297;BME280;61524;50.938;11.396;2023-05-20T02:24:22;99682.66;;;12.95;80.54
73297;BME280;61524;50.938;11.396;2023-05-20T02:26:48;99684.03;;;13.14;80.18
73297;BME280;61524;50.938;11.396;2023-05-20T02:29:15;99687.00;;;13.35;79.94
73297;BME280;61524;50.938;11.396;2023-05-20T02:31:41;99682.63;;;13.12;79.80
73297;BME280;61524;50.938;11.396;2023-05-20T02:34:06;99680.69;;;13.24;80.02
73297;BME280;61524;50.938;11.396;2023-05-20T02:36:32;99681.00;;;13.11;80.26
73297;BME280;61524;50.938;11.396;2023-05-20T02:38:57;99672.38;;;13.26;80.25
73297;BME280;61524;50.938;11.396;2023-05-20T02:41:25;99677.94;;;12.85;81.31
73297;BME280;61524;50.938;11.396;2023-05-20T02:43:50;99663.88;;;12.95;81.66
73297;BME280;61524;50.938;11.396;2023-05-20T02:46:16;99668.63;;;13.27;80.32
73297;BME280;61524;50.938;11.396;2023-05-20T02:48:44;99663.84;;;12.73;81.86
73297;BME280;61524;50.938;11.396;2023-05-20T02:51:09;99658.44;;;12.90;81.97
73297;BME280;61524;50.938;11.396;2023-05-20T02:53:35;99657.59;;;13.23;80.43
73297;BME280;61524;50.938;11.396;2023-05-20T02:56:02;99656.94;;;13.16;80.77
73297;BME280;61524;50.938;11.396;2023-05-20T02:58:28;99646.69;;;13.30;79.72
73297;BME280;61524;50.938;11.396;2023-05-20T03:00:54;99653.88;;;13.24;79.88
73297;BME280;61524;50.938;11.396;2023-05-20T03:03:22;99660.97;;;13.35;79.31
73297;BME280;61524;50.938;11.396;2023-05-20T03:05:48;99664.75;;;13.39;79.54
73297;BME280;61524;50.938;11.396;2023-05-20T03:08:14;99650.81;;;13.21;80.40
73297;BME280;61524;50.938;11.396;2023-05-20T03:10:39;99655.16;;;13.05;80.90
73297;BME280;61524;50.938;11.396;2023-05-20T03:13:06;99654.66;;;13.25;80.90
73297;BME280;61524;50.938;11.396;2023-05-20T03:15:40;99648.56;;;13.12;80.94
73297;BME280;61524;50.938;11.396;2023-05-20T03:18:06;99649.06;;;13.09;80.77
73297;BME280;61524;50.938;11.396;2023-05-20T03:20:32;99653.88;;;13.24;80.59
73297;BME280;61524;50.938;11.396;2023-05-20T03:23:01;99639.28;;;13.20;80.92
73297;BME280;61524;50.938;11.396;2023-05-20T03:25:27;99635.47;;;13.16;80.71
73297;BME280;61524;50.938;11.396;2023-05-20T03:27:52;99652.31;;;13.11;81.28
73297;BME280;61524;50.938;11.396;2023-05-20T03:30:18;99650.19;;;13.30;80.14
73297;BME280;61524;50.938;11.396;2023-05-20T03:32:44;99658.81;;;13.16;81.03
73297;BME280;61524;50.938;11.396;2023-05-20T03:35:09;99650.53;;;13.00;81.43
73297;BME280;61524;50.938;11.396;2023-05-20T03:37:35;99639.38;;;12.70;82.77
73297;BME280;61524;50.938;11.396;2023-05-20T03:40:01;99643.50;;;13.16;81.11
73297;BME280;61524;50.938;11.396;2023-05-20T03:42:31;99649.13;;;13.31;80.51
73297;BME280;61524;50.938;11.396;2023-05-20T03:44:56;99651.72;;;13.26;80.73
73297;BME280;61524;50.938;11.396;2023-05-20T03:47:22;99648.78;;;13.28;80.26
73297;BME280;61524;50.938;11.396;2023-05-20T03:49:47;99655.53;;;13.30;80.47
73297;BME280;61524;50.938;11.396;2023-05-20T03:52:13;99652.38;;;13.17;81.15
73297;BME280;61524;50.938;11.396;2023-05-20T03:54:38;99641.06;;;12.93;81.96
73297;BME280;61524;50.938;11.396;2023-05-20T03:57:03;99636.56;;;12.98;82.04
73297;BME280;61524;50.938;11.396;2023-05-20T03:59:29;99643.69;;;13.09;82.11
73297;BME280;61524;50.938;11.396;2023-05-20T04:01:55;99642.47;;;13.39;80.75
73297;BME280;61524;50.938;11.396;2023-05-20T04:04:21;99636.03;;;13.18;80.75
73297;BME280;61524;50.938;11.396;2023-05-20T04:06:47;99635.25;;;13.01;82.46
73297;BME280;61524;50.938;11.396;2023-05-20T04:09:12;99644.06;;;13.18;81.46
73297;BME280;61524;50.938;11.396;2023-05-20T04:11:37;99637.59;;;12.75;82.93
73297;BME280;61524;50.938;11.396;2023-05-20T04:14:03;99641.28;;;13.08;81.75
73297;BME280;61524;50.938;11.396;2023-05-20T04:16:28;99647.59;;;13.19;81.64
73297;BME280;61524;50.938;11.396;2023-05-20T04:18:54;99640.19;;;13.48;80.54
73297;BME280;61524;50.938;11.396;2023-05-20T04:21:20;99641.25;;;13.47;80.35
73297;BME280;61524;50.938;11.396;2023-05-20T04:23:46;99651.53;;;13.55;80.33
73297;BME280;61524;50.938;11.396;2023-05-20T04:26:11;99657.34;;;13.69;79.88
73297;BME280;61524;50.938;11.396;2023-05-20T04:28:37;99654.13;;;13.72;78.84
73297;BME280;61524;50.938;11.396;2023-05-20T04:31:06;99675.00;;;13.64;80.05
73297;BME280;61524;50.938;11.396;2023-05-20T04:33:32;99670.09;;;13.56;81.70
73297;BME280;61524;50.938;11.396;2023-05-20T04:36:02;99674.69;;;13.61;80.55
73297;BME280;61524;50.938;11.396;2023-05-20T04:38:30;99681.72;;;13.62;80.09
73297;BME280;61524;50.938;11.396;2023-05-20T04:40:56;99673.19;;;13.70;79.58
73297;BME280;61524;50.938;11.396;2023-05-20T04:43:25;99682.69;;;13.78;79.20
73297;BME280;61524;50.938;11.396;2023-05-20T04:45:57;99676.88;;;13.64;79.52
73297;BME280;61524;50.938;11.396;2023-05-20T04:48:22;99683.94;;;13.70;79.71
73297;BME280;61524;50.938;11.396;2023-05-20T04:50:49;99680.00;;;13.17;81.49
73297;BME280;61524;50.938;11.396;2023-05-20T04:53:18;99675.16;;;13.14;82.56
73297;BME280;61524;50.938;11.396;2023-05-20T04:55:44;99672.69;;;12.57;84.27
73297;BME280;61524;50.938;11.396;2023-05-20T04:58:10;99664.00;;;13.22;82.57
73297;BME280;61524;50.938;11.396;2023-05-20T05:00:45;99660.22;;;13.62;80.76
73297;BME280;61524;50.938;11.396;2023-05-20T05:03:11;99672.72;;;13.29;82.45
73297;BME280;61524;50.938;11.396;2023-05-20T05:05:38;99656.34;;;13.31;81.57
73297;BME280;61524;50.938;11.396;2023-05-20T05:08:05;99668.38;;;12.90;83.08
73297;BME280;61524;50.938;11.396;2023-05-20T05:10:31;99667.38;;;13.34;82.27
73297;BME280;61524;50.938;11.396;2023-05-20T05:12:57;99670.66;;;13.58;80.79
73297;BME280;61524;50.938;11.396;2023-05-20T05:15:23;99658.00;;;13.15;82.30
73297;BME280;61524;50.938;11.396;2023-05-20T05:17:49;99659.63;;;13.16;82.60
73297;BME280;61524;50.938;11.396;2023-05-20T05:20:15;99653.28;;;13.22;82.65
73297;BME280;61524;50.938;11.396;2023-05-20T05:22:41;99653.47;;;13.37;81.82
73297;BME280;61524;50.938;11.396;2023-05-20T05:25:07;99672.06;;;13.44;82.13
73297;BME280;61524;50.938;11.396;2023-05-20T05:27:33;99656.22;;;13.64;81.40
73297;BME280;61524;50.938;11.396;2023-05-20T05:30:00;99647.34;;;13.20;82.11
73297;BME280;61524;50.938;11.396;2023-05-20T05:32:25;99669.25;;;13.34;82.26
73297;BME280;61524;50.938;11.396;2023-05-20T05:34:51;99656.03;;;13.49;81.88
73297;BME280;61524;50.938;11.396;2023-05-20T05:37:16;99655.88;;;13.83;81.01
73297;BME280;61524;50.938;11.396;2023-05-20T05:39:42;99658.06;;;13.20;83.07
73297;BME280;61524;50.938;11.396;2023-05-20T05:42:07;99646.16;;;13.33;82.43
73297;BME280;61524;50.938;11.396;2023-05-20T05:44:32;99643.75;;;13.53;82.05
73297;BME280;61524;50.938;11.396;2023-05-20T05:46:58;99652.94;;;13.35;82.75
73297;BME280;61524;50.938;11.396;2023-05-20T05:49:24;99655.28;;;13.32;83.10
73297;BME280;61524;50.938;11.396;2023-05-20T05:51:50;99647.88;;;13.88;80.63
73297;BME280;61524;50.938;11.396;2023-05-20T05:54:15;99651.38;;;13.88;80.11
73297;BME280;61524;50.938;11.396;2023-05-20T05:56:41;99657.72;;;13.55;81.56
73297;BME280;61524;50.938;11.396;2023-05-20T05:59:06;99648.72;;;13.23;82.91
73297;BME280;61524;50.938;11.396;2023-05-20T06:01:32;99656.44;;;13.85;80.66
73297;BME280;61524;50.938;11.396;2023-05-20T06:03:58;99655.47;;;13.69;81.55
73297;BME280;61524;50.938;11.396;2023-05-20T06:06:23;99660.38;;;13.77;81.29
73297;BME280;61524;50.938;11.396;2023-05-20T06:08:49;99650.72;;;13.32;82.78
73297;BME280;61524;50.938;11.396;2023-05-20T06:11:14;99661.09;;;13.07;83.62
73297;BME280;61524;50.938;11.396;2023-05-20T06:13:40;99652.59;;;13.54;81.98
73297;BME280;61524;50.938;11.396;2023-05-20T06:16:05;99654.28;;;12.99;84.07
73297;BME280;61524;50.938;11.396;2023-05-20T06:18:30;99663.69;;;13.19;82.91
73297;BME280;61524;50.938;11.396;2023-05-20T06:20:56;99655.16;;;13.22;83.23
73297;BME280;61524;50.938;11.396;2023-05-20T06:23:22;99659.28;;;13.29;83.14
73297;BME280;61524;50.938;11.396;2023-05-20T06:25:48;99655.63;;;13.19;83.17
73297;BME280;61524;50.938;11.396;2023-05-20T06:28:14;99656.41;;;13.36;82.45
73297;BME280;61524;50.938;11.396;2023-05-20T06:30:40;99651.66;;;13.21;82.74
73297;BME280;61524;50.938;11.396;2023-05-20T06:33:06;99653.78;;;13.63;81.08
73297;BME280;61524;50.938;11.396;2023-05-20T06:35:31;99653.16;;;13.78;81.09
73297;BME280;61524;50.938;11.396;2023-05-20T06:37:59;99659.84;;;13.31;82.34
73297;BME280;61524;50.938;11.396;2023-05-20T06:40:26;99664.09;;;13.27;82.94
73297;BME280;61524;50.938;11.396;2023-05-20T06:42:51;99670.38;;;13.60;82.21
73297;BME280;61524;50.938;11.396;2023-05-20T06:45:17;99660.16;;;13.35;81.39
73297;BME280;61524;50.938;11.396;2023-05-20T06:47:43;99658.91;;;13.43;82.57
73297;BME280;61524;50.938;11.396;2023-05-20T06:50:08;99657.09;;;13.70;81.22
73297;BME280;61524;50.938;11.396;2023-05-20T06:52:34;99648.38;;;13.85;80.69
73297;BME280;61524;50.938;11.396;2023-05-20T06:55:00;99640.28;;;14.07;79.83
73297;BME280;61524;50.938;11.396;2023-05-20T06:57:25;99646.47;;;14.39;79.22
73297;BME280;61524;50.938;11.396;2023-05-20T06:59:50;99637.84;;;13.78;80.40
73297;BME280;61524;50.938;11.396;2023-05-20T07:02:16;99636.19;;;14.04;80.50
73297;BME280;61524;50.938;11.396;2023-05-20T07:04:41;99640.16;;;13.70;80.95
73297;BME280;61524;50.938;11.396;2023-05-20T07:07:07;99640.00;;;13.81;80.93
73297;BME280;61524;50.938;11.396;2023-05-20T07:09:32;99625.16;;;14.01;80.39
73297;BME280;61524;50.938;11.396;2023-05-20T07:11:58;99627.91;;;13.30;82.71
73297;BME280;61524;50.938;11.396;2023-05-20T07:14:23;99628.56;;;13.91;80.85
73297;BME280;61524;50.938;11.396;2023-05-20T07:16:48;99642.31;;;13.68;81.45
73297;BME280;61524;50.938;11.396;2023-05-20T07:19:14;99632.59;;;13.88;81.05
73297;BME280;61524;50.938;11.396;2023-05-20T07:21:39;99608.25;;;14.00;80.48
73297;BME280;61524;50.938;11.396;2023-05-20T07:24:05;99620.63;;;14.33;79.49
73297;BME280;61524;50.938;11.396;2023-05-20T07:26:31;99614.22;;;14.07;80.62
73297;BME280;61524;50.938;11.396;2023-05-20T07:29:00;99625.56;;;14.14;80.45
73297;BME280;61524;50.938;11.396;2023-05-20T07:31:26;99616.72;;;14.19;79.89
73297;BME280;61524;50.938;11.396;2023-05-20T07:33:51;99614.97;;;14.67;78.88
73297;BME280;61524;50.938;11.396;2023-05-20T07:36:17;99616.44;;;14.90;77.83
73297;BME280;61524;50.938;11.396;2023-05-20T07:38:42;99605.91;;;14.78;78.33
73297;BME280;61524;50.938;11.396;2023-05-20T07:41:08;99611.84;;;14.80;78.12
73297;BME280;61524;50.938;11.396;2023-05-20T07:43:33;99600.78;;;14.39;79.33
73297;BME280;61524;50.938;11.396;2023-05-20T07:45:58;99608.44;;;14.58;78.21
73297;BME280;61524;50.938;11.396;2023-05-20T07:48:24;99601.72;;;15.03;77.60
73297;BME280;61524;50.938;11.396;2023-05-20T07:50:49;99602.00;;;14.54;79.55
73297;BME280;61524;50.938;11.396;2023-05-20T07:53:15;99600.50;;;15.31;77.00
73297;BME280;61524;50.938;11.396;2023-05-20T07:55:40;99602.81;;;15.02;77.25
73297;BME280;61524;50.938;11.396;2023-05-20T07:58:05;99603.38;;;14.61;79.53
73297;BME280;61524;50.938;11.396;2023-05-20T08:00:31;99599.38;;;15.21;78.04
73297;BME280;61524;50.938;11.396;2023-05-20T08:02:56;99601.22;;;15.11;78.19
73297;BME280;61524;50.938;11.396;2023-05-20T08:05:22;99584.25;;;15.10;76.86
73297;BME280;61524;50.938;11.396;2023-05-20T08:07:47;99581.16;;;15.34;76.80
73297;BME280;61524;50.938;11.396;2023-05-20T08:10:13;99571.09;;;15.14;76.50
73297;BME280;61524;50.938;11.396;2023-05-20T08:12:39;99576.84;;;15.48;76.52
73297;BME280;61524;50.938;11.396;2023-05-20T08:15:05;99579.72;;;15.21;77.25
73297;BME280;61524;50.938;11.396;2023-05-20T08:17:32;99589.88;;;15.77;75.35
73297;BME280;61524;50.938;11.396;2023-05-20T08:19:57;99583.56;;;15.40;77.24
73297;BME280;61524;50.938;11.396;2023-05-20T08:22:22;99567.00;;;15.99;75.27
73297;BME280;61524;50.938;11.396;2023-05-20T08:24:48;99585.19;;;15.41;75.76
73297;BME280;61524;50.938;11.396;2023-05-20T08:27:13;99588.41;;;15.38;76.92
73297;BME280;61524;50.938;11.396;2023-05-20T08:29:39;99581.81;;;15.92;75.18
73297;BME280;61524;50.938;11.396;2023-05-20T08:32:04;99575.44;;;15.20;76.37
73297;BME280;61524;50.938;11.396;2023-05-20T08:34:30;99577.13;;;15.41;76.77
73297;BME280;61524;50.938;11.396;2023-05-20T08:36:56;99586.19;;;15.20;77.66
73297;BME280;61524;50.938;11.396;2023-05-20T08:39:22;99575.06;;;15.79;75.79
73297;BME280;61524;50.938;11.396;2023-05-20T08:41:47;99576.19;;;15.93;75.31
73297;BME280;61524;50.938;11.396;2023-05-20T08:44:13;99571.84;;;15.82;75.69
73297;BME280;61524;50.938;11.396;2023-05-20T08:46:39;99586.38;;;14.98;78.73
73297;BME280;61524;50.938;11.396;2023-05-20T08:49:06;99579.97;;;15.14;78.10
73297;BME280;61524;50.938;11.396;2023-05-20T08:51:32;99582.50;;;15.46;77.00
73297;BME280;61524;50.938;11.396;2023-05-20T08:53:58;99585.72;;;15.38;77.15
73297;BME280;61524;50.938;11.396;2023-05-20T08:56:24;99597.47;;;15.07;77.84
73297;BME280;61524;50.938;11.396;2023-05-20T08:58:51;99584.47;;;14.93;78.83
73297;BME280;61524;50.938;11.396;2023-05-20T09:01:18;99570.34;;;15.29;77.32
73297;BME280;61524;50.938;11.396;2023-05-20T09:03:43;99587.41;;;14.87;78.32
73297;BME280;61524;50.938;11.396;2023-05-20T09:06:09;99584.00;;;15.12;77.83
73297;BME280;61524;50.938;11.396;2023-05-20T09:08:35;99562.06;;;15.51;76.88
73297;BME280;61524;50.938;11.396;2023-05-20T09:11:01;99562.69;;;15.78;75.65
73297;BME280;61524;50.938;11.396;2023-05-20T09:13:29;99553.78;;;15.72;75.39
73297;BME280;61524;50.938;11.396;2023-05-20T09:15:55;99560.22;;;15.77;75.50
73297;BME280;61524;50.938;11.396;2023-05-20T09:18:21;99565.66;;;16.17;75.79
73297;BME280;61524;50.938;11.396;2023-05-20T09:20:49;99551.38;;;16.17;73.90
73297;BME280;61524;50.938;11.396;2023-05-20T09:23:18;99572.66;;;16.08;73.69
73297;BME280;61524;50.938;11.396;2023-05-20T09:25:43;99559.97;;;16.34;74.75
73297;BME280;61524;50.938;11.396;2023-05-20T09:28:09;99559.03;;;16.95;72.99
73297;BME280;61524;50.938;11.396;2023-05-20T09:30:36;99566.19;;;16.14;73.89
73297;BME280;61524;50.938;11.396;2023-05-20T09:33:03;99555.38;;;16.50;73.37
73297;BME280;61524;50.938;11.396;2023-05-20T09:35:29;99560.53;;;16.41;73.00
73297;BME280;61524;50.938;11.396;2023-05-20T09:37:56;99563.19;;;16.57;74.11
73297;BME280;61524;50.938;11.396;2023-05-20T09:40:24;99560.47;;;16.62;73.48
73297;BME280;61524;50.938;11.396;2023-05-20T09:42:56;99558.25;;;16.94;73.05
73297;BME280;61524;50.938;11.396;2023-05-20T09:45:24;99566.41;;;16.69;73.30
73297;BME280;61524;50.938;11.396;2023-05-20T09:47:50;99558.84;;;16.81;72.51
73297;BME280;61524;50.938;11.396;2023-05-20T09:50:17;99552.66;;;16.50;73.45
73297;BME280;61524;50.938;11.396;2023-05-20T09:52:46;99550.22;;;16.79;72.40
73297;BME280;61524;50.938;11.396;2023-05-20T09:55:13;99549.88;;;17.50;71.01
73297;BME280;61524;50.938;11.396;2023-05-20T09:57:39;99541.28;;;17.43;71.05
73297;BME280;61524;50.938;11.396;2023-05-20T10:00:05;99551.72;;;17.05;71.80
73297;BME280;61524;50.938;11.396;2023-05-20T10:02:33;99540.25;;;17.34;70.94
73297;BME280;61524;50.938;11.396;2023-05-20T10:05:03;99543.44;;;16.87;73.51
73297;BME280;61524;50.938;11.396;2023-05-20T10:13:17;99535.03;;;17.48;71.53
73297;BME280;61524;50.938;11.396;2023-05-20T10:21:17;99524.34;;;17.72;70.90
73297;BME280;61524;50.938;11.396;2023-05-20T10:23:43;99514.94;;;17.64;70.53
73297;BME280;61524;50.938;11.396;2023-05-20T10:26:09;99524.06;;;17.78;70.99
73297;BME280;61524;50.938;11.396;2023-05-20T10:28:36;99528.25;;;17.06;71.97
73297;BME280;61524;50.938;11.396;2023-05-20T10:31:17;99526.16;;;16.88;72.39
73297;BME280;61524;50.938;11.396;2023-05-20T10:33:44;99528.03;;;17.47;71.85
73297;BME280;61524;50.938;11.396;2023-05-20T10:36:21;99525.34;;;17.86;71.38
73297;BME280;61524;50.938;11.396;2023-05-20T10:38:57;99520.06;;;17.21;71.69
73297;BME280;61524;50.938;11.396;2023-05-20T10:41:27;99518.31;;;16.96;73.32
73297;BME280;61524;50.938;11.396;2023-05-20T10:44:04;99511.88;;;16.77;73.38
73297;BME280;61524;50.938;11.396;2023-05-20T10:46:31;99505.53;;;17.56;71.39
73297;BME280;61524;50.938;11.396;2023-05-20T10:48:57;99508.97;;;17.67;71.54
73297;BME280;61524;50.938;11.396;2023-05-20T10:51:23;99501.41;;;17.64;71.29
73297;BME280;61524;50.938;11.396;2023-05-20T10:53:52;99497.91;;;17.64;71.12
73297;BME280;61524;50.938;11.396;2023-05-20T10:56:21;99490.34;;;18.00;69.29
73297;BME280;61524;50.938;11.396;2023-05-20T10:58:47;99504.53;;;17.87;69.42
73297;BME280;61524;50.938;11.396;2023-05-20T11:01:13;99486.91;;;18.47;69.01
73297;BME280;61524;50.938;11.396;2023-05-20T11:03:40;99482.84;;;18.21;69.55
73297;BME280;61524;50.938;11.396;2023-05-20T11:06:15;99495.97;;;18.08;69.21
73297;BME280;61524;50.938;11.396;2023-05-20T11:08:41;99494.41;;;17.63;70.51
73297;BME280;61524;50.938;11.396;2023-05-20T11:11:07;99493.56;;;18.55;68.70
73297;BME280;61524;50.938;11.396;2023-05-20T11:13:33;99483.03;;;19.01;67.49
73297;BME280;61524;50.938;11.396;2023-05-20T11:16:00;99484.56;;;19.83;66.12
73297;BME280;61524;50.938;11.396;2023-05-20T11:18:26;99476.97;;;19.28;65.63
73297;BME280;61524;50.938;11.396;2023-05-20T11:20:58;99486.31;;;18.98;66.09
73297;BME280;61524;50.938;11.396;2023-05-20T11:23:25;99475.34;;;18.90;67.21
73297;BME280;61524;50.938;11.396;2023-05-20T11:25:52;99484.16;;;18.52;68.52
73297;BME280;61524;50.938;11.396;2023-05-20T11:28:18;99476.28;;;18.80;68.25
73297;BME280;61524;50.938;11.396;2023-05-20T11:30:46;99475.50;;;18.26;70.14
73297;BME280;61524;50.938;11.396;2023-05-20T11:33:12;99480.06;;;18.31;70.15
73297;BME280;61524;50.938;11.396;2023-05-20T11:35:47;99479.41;;;18.39;70.15
73297;BME280;61524;50.938;11.396;2023-05-20T11:38:14;99470.72;;;17.89;70.94
73297;BME280;61524;50.938;11.396;2023-05-20T11:40:50;99459.38;;;18.40;70.45
73297;BME280;61524;50.938;11.396;2023-05-20T11:43:17;99461.59;;;17.41;71.62
73297;BME280;61524;50.938;11.396;2023-05-20T11:45:46;99464.78;;;17.87;70.68
73297;BME280;61524;50.938;11.396;2023-05-20T11:48:12;99449.34;;;17.93;70.16
73297;BME280;61524;50.938;11.396;2023-05-20T11:50:44;99453.25;;;17.76;71.43
73297;BME280;61524;50.938;11.396;2023-05-20T11:53:13;99463.28;;;17.71;71.46
73297;BME280;61524;50.938;11.396;2023-05-20T11:55:50;99456.84;;;17.96;70.89
73297;BME280;61524;50.938;11.396;2023-05-20T11:58:34;99457.34;;;17.69;71.24
73297;BME280;61524;50.938;11.396;2023-05-20T12:00:59;99448.69;;;18.30;70.63
73297;BME280;61524;50.938;11.396;2023-05-20T12:03:25;99454.03;;;18.35;70.20
73297;BME280;61524;50.938;11.396;2023-05-20T12:05:52;99455.84;;;18.16;71.04
73297;BME280;61524;50.938;11.396;2023-05-20T12:08:17;99439.03;;;17.95;71.19
73297;BME280;61524;50.938;11.396;2023-05-20T12:10:43;99443.09;;;18.69;69.93
73297;BME280;61524;50.938;11.396;2023-05-20T12:13:09;99437.34;;;18.76;69.59
73297;BME280;61524;50.938;11.396;2023-05-20T12:15:37;99445.84;;;19.45;69.00
73297;BME280;61524;50.938;11.396;2023-05-20T12:18:03;99439.34;;;18.89;68.84
73297;BME280;61524;50.938;11.396;2023-05-20T12:20:29;99437.47;;;18.42;69.89
73297;BME280;61524;50.938;11.396;2023-05-20T12:22:56;99436.13;;;18.63;70.48
73297;BME280;61524;50.938;11.396;2023-05-20T12:25:22;99431.25;;;18.41;70.52
73297;BME280;61524;50.938;11.396;2023-05-20T12:27:48;99417.25;;;18.58;70.42
73297;BME280;61524;50.938;11.396;2023-05-20T12:30:16;99444.38;;;18.00;70.66
73297;BME280;61524;50.938;11.396;2023-05-20T12:32:42;99436.78;;;18.31;71.02
73297;BME280;61524;50.938;11.396;2023-05-20T12:35:08;99436.38;;;18.61;70.63
73297;BME280;61524;50.938;11.396;2023-05-20T12:37:34;99442.50;;;18.48;70.73
73297;BME280;61524;50.938;11.396;2023-05-20T12:40:00;99434.41;;;18.24;71.02
73297;BME280;61524;50.938;11.396;2023-05-20T12:42:26;99430.25;;;18.80;70.50
73297;BME280;61524;50.938;11.396;2023-05-20T12:44:51;99424.75;;;18.61;71.08
73297;BME280;61524;50.938;11.396;2023-05-20T12:47:17;99430.97;;;18.85;70.31
73297;BME280;61524;50.938;11.396;2023-05-20T12:49:43;99430.84;;;19.14;69.61
73297;BME280;61524;50.938;11.396;2023-05-20T12:52:08;99426.16;;;18.58;70.40
73297;BME280;61524;50.938;11.396;2023-05-20T12:54:33;99425.28;;;18.63;71.18
73297;BME280;61524;50.938;11.396;2023-05-20T12:56:59;99423.75;;;18.57;71.17